Terminal Aerodrome Forecast
Issued by NWS Charleston, WV

Current Version | Previous Version | Graphics & Text | Print | Product List | Glossary On
Versions: 1 2 3 4 5 6 7 8 9 10 11 12 13 14 15 16 17 18 19 20 21 22 23 24
000
FTUS41 KRLX 131100
TAFHTS
TAF
KHTS 131120Z 1312/1412 VRB04KT 5SM BR VCSH OVC018
     FM131500 34004KT 6SM BR BKN025
     FM132000 34005KT P6SM SCT025 BKN035
     FM140000 35004KT P6SM SCT250
     FM141100 05004KT P6SM FEW250=

USA.gov is the U.S. government's official web portal to all federal, state and local government web resources and services.